メインページ
METAR-TAF:

METAR-TAF

空港 :

メンドーサ, アルゼンチン

緯度: 32-50S, 経度: 068-47W, 海抜: 705m

現時点の気象観測

当レポートは28分前の21:00(UTC)に作成
南東の風 12kt
気温 23°C
湿度 20%
気圧 1010 hPa
視程10km以上
1,500メートル以下は雲なし、積乱雲なし

METAR: SAME 202100Z 14012KT CAVOK 23/M01 Q1010

時間: 18:28 (21:28 UTC)

予報

当レポートは4時間28分前の17:00(UTC)に作成
予報は20日の 18時(UTC)から 21日の 18時(UTC)まで有効
南東の風 15kt
視程10km以上
高度4000ftの雲はほとんどない
高度10000ftの雲は散在している

TAF: SAME 201700Z 2018/2118 14015KT 9999 FEW040 SCT100 TX26/2020Z TN10/2110Z

4,000以上の空港の気象観測と天気予報(METAR報とTAF報)

利用可能な観測所は地図上に黄色い丸と赤い丸で示す。

丸の上にカーソルを重ねると観測所名を参照できる。

次にクリックすると気象観測と天気予報を参照できる。

マップの切り替え:黒色「×」印の緑ボタンをクリックして拡大、「-」印の緑ボタンをクリックして縮小、緑色の三角印をクリックして隣りの地図に切り替え


METAR-TAF: